Time;durP1;ratioP1;P1;durP2;ratioP2;P2;SDS_P1;SDS_P2;PMS_P1;PMS_P2;Temp;Humidity;BMP_temperature;BMP_pressure;BME280_temperature;BME280_humidity;BME280_pressure;Samples;Min_cycle;Max_cycle;Signal;HPM_P1;HPM_P2
2021/04/04 00:01:36;;;;;;;13.77;2.00;;;5.70;99.90;;;;;;5047547;28;20127;-82
2021/04/04 00:04:03;;;;;;;21.40;2.80;;;5.60;99.90;;;;;;5069411;28;20480;-82
2021/04/04 00:06:28;;;;;;;15.73;3.15;;;5.60;99.90;;;;;;5068869;28;20049;-82
2021/04/04 00:08:54;;;;;;;20.55;2.58;;;5.60;99.90;;;;;;5050666;28;20049;-82
2021/04/04 00:11:20;;;;;;;10.48;2.33;;;5.60;99.90;;;;;;5034630;28;20041;-82
2021/04/04 00:13:46;;;;;;;20.13;1.85;;;5.60;99.90;;;;;;5017687;28;20499;-82
2021/04/04 00:16:11;;;;;;;11.93;1.75;;;5.60;99.90;;;;;;5058400;28;20357;-82
2021/04/04 00:18:41;;;;;;;20.27;2.90;;;5.50;99.90;;;;;;5050620;28;20742;-82
2021/04/04 00:21:07;;;;;;;18.10;2.60;;;5.50;99.90;;;;;;5050973;28;20463;-82
2021/04/04 00:23:34;;;;;;;27.23;2.15;;;5.50;99.90;;;;;;5050648;28;20154;-82
2021/04/04 00:26:00;;;;;;;28.08;3.70;;;5.50;99.90;;;;;;5045964;28;20063;-83
2021/04/04 00:28:26;;;;;;;17.60;2.03;;;5.50;99.90;;;;;;5050600;28;20048;-83
2021/04/04 00:30:51;;;;;;;12.02;1.95;;;5.50;99.90;;;;;;5033760;28;20283;-83
2021/04/04 00:33:18;;;;;;;9.32;1.77;;;5.50;99.90;;;;;;5069060;28;20459;-83
2021/04/04 00:35:43;;;;;;;11.85;1.98;;;5.50;99.90;;;;;;5049753;28;20051;-83
2021/04/04 00:38:10;;;;;;;13.35;1.52;;;5.50;99.90;;;;;;5046358;28;20040;-83
2021/04/04 00:40:37;;;;;;;14.13;1.40;;;5.50;99.90;;;;;;5050220;28;20040;-83
2021/04/04 00:43:04;;;;;;;15.10;1.48;;;5.50;99.90;;;;;;5062464;28;20048;-83
2021/04/04 00:45:34;;;;;;;10.98;1.70;;;5.50;99.90;;;;;;5068901;28;20075;-83
2021/04/04 00:48:01;;;;;;;9.52;1.42;;;5.50;99.90;;;;;;5064610;28;20041;-83
2021/04/04 00:50:31;;;;;;;12.27;1.95;;;5.50;99.90;;;;;;5050824;28;20087;-83
2021/04/04 00:52:58;;;;;;;7.53;1.88;;;5.50;99.90;;;;;;5050518;28;20051;-83
2021/04/04 00:55:24;;;;;;;12.20;1.85;;;5.50;99.90;;;;;;5050948;28;20098;-82
2021/04/04 00:57:52;;;;;;;18.30;2.33;;;5.60;99.90;;;;;;5065576;28;20143;-82
2021/04/04 01:00:20;;;;;;;19.55;2.88;;;5.60;99.90;;;;;;5068762;28;20075;-82
2021/04/04 01:02:46;;;;;;;8.45;1.45;;;5.60;99.90;;;;;;5050129;28;20127;-83
2021/04/04 01:05:43;;;;;;;12.98;1.60;;;5.60;99.90;;;;;;5042397;28;20048;-83
2021/04/04 01:08:09;;;;;;;14.80;1.90;;;5.70;99.90;;;;;;5071125;28;20044;-83
2021/04/04 01:10:39;;;;;;;14.68;3.08;;;5.70;99.90;;;;;;5049780;28;20388;-83
2021/04/04 01:13:18;;;;;;;8.88;0.85;;;5.70;99.90;;;;;;5055207;28;20070;-83
2021/04/04 01:16:02;;;;;;;23.80;1.88;;;5.70;99.90;;;;;;5071861;28;20063;-83
2021/04/04 01:19:08;;;;;;;15.23;1.98;;;5.70;99.90;;;;;;5054778;28;20044;-82
2021/04/04 01:21:49;;;;;;;14.32;2.50;;;5.70;99.90;;;;;;5038868;28;20393;-82
2021/04/04 01:24:44;;;;;;;9.07;2.17;;;5.70;99.90;;;;;;5043705;28;20032;-83
2021/04/04 01:27:38;;;;;;;14.07;1.73;;;5.70;99.90;;;;;;5050813;28;20070;-83
2021/04/04 01:30:06;;;;;;;10.43;1.00;;;5.80;99.90;;;;;;5059567;28;20040;-82
2021/04/04 01:32:34;;;;;;;6.95;1.25;;;5.80;99.90;;;;;;5072122;28;20071;-82
2021/04/04 01:35:02;;;;;;;18.65;2.15;;;5.90;99.90;;;;;;5071359;28;20036;-83
2021/04/04 01:37:28;;;;;;;15.90;1.88;;;5.90;99.90;;;;;;5071948;28;20385;-82
2021/04/04 01:39:59;;;;;;;16.38;2.50;;;5.90;99.90;;;;;;5042019;28;20492;-82
2021/04/04 01:42:25;;;;;;;22.95;2.33;;;5.90;99.90;;;;;;5054603;28;20036;-82
2021/04/04 01:44:52;;;;;;;8.63;1.00;;;5.80;99.90;;;;;;5071250;28;20482;-83
2021/04/04 01:47:19;;;;;;;26.75;2.55;;;5.90;99.90;;;;;;5072117;28;20067;-82
2021/04/04 01:49:49;;;;;;;12.10;1.73;;;5.80;99.90;;;;;;5042542;28;20110;-83
2021/04/04 01:52:15;;;;;;;16.07;1.87;;;5.90;99.90;;;;;;5071881;28;20437;-82
2021/04/04 01:54:42;;;;;;;18.58;1.70;;;5.90;99.90;;;;;;5053647;28;20287;-83
2021/04/04 01:57:09;;;;;;;14.43;1.70;;;5.80;99.90;;;;;;5060466;28;20048;-82
2021/04/04 01:59:36;;;;;;;11.63;1.08;;;5.70;99.90;;;;;;5072039;28;20044;-83
2021/04/04 02:02:03;;;;;;;3.85;1.20;;;5.90;99.90;;;;;;5036131;28;20044;-83
2021/04/04 02:04:29;;;;;;;9.32;1.17;;;5.90;99.90;;;;;;5054108;28;20060;-83
2021/04/04 02:06:57;;;;;;;11.43;1.85;;;5.80;99.90;;;;;;5019931;28;20656;-83
2021/04/04 02:09:23;;;;;;;15.57;1.90;;;5.90;99.90;;;;;;5054014;28;20040;-83
2021/04/04 02:11:50;;;;;;;13.15;1.60;;;5.80;99.90;;;;;;5052931;28;20126;-83
2021/04/04 02:14:21;;;;;;;10.82;1.20;;;5.90;99.90;;;;;;5071635;28;20051;-83
2021/04/04 02:16:50;;;;;;;11.85;1.55;;;5.90;99.90;;;;;;5051785;28;20541;-83
2021/04/04 02:19:18;;;;;;;17.38;1.80;;;5.90;99.90;;;;;;5049840;28;20111;-84
2021/04/04 02:21:48;;;;;;;11.27;1.30;;;5.90;99.90;;;;;;5036472;28;20057;-84
2021/04/04 02:24:14;;;;;;;11.57;1.50;;;5.90;99.90;;;;;;5053484;28;20040;-83
2021/04/04 02:26:41;;;;;;;10.13;1.38;;;5.90;99.90;;;;;;5053220;28;20132;-83
2021/04/04 02:29:06;;;;;;;7.38;1.52;;;5.90;99.90;;;;;;5036791;28;20532;-83
2021/04/04 02:31:45;;;;;;;9.35;1.35;;;5.90;99.90;;;;;;5053460;28;20064;-83
2021/04/04 02:34:15;;;;;;;17.38;1.70;;;5.90;99.90;;;;;;5049176;28;20052;-84
2021/04/04 02:36:42;;;;;;;5.25;1.60;;;5.90;99.90;;;;;;5051833;28;20246;-83
2021/04/04 02:39:15;;;;;;;11.80;1.75;;;5.90;99.90;;;;;;5070648;28;20044;-83
2021/04/04 02:41:42;;;;;;;7.50;1.45;;;5.90;99.90;;;;;;5070483;28;20041;-83
2021/04/04 02:44:09;;;;;;;9.52;1.65;;;5.90;99.90;;;;;;5068356;28;20043;-83
2021/04/04 02:46:37;;;;;;;11.02;1.70;;;5.90;99.90;;;;;;5047811;28;20045;-83
2021/04/04 02:49:08;;;;;;;15.63;2.30;;;5.90;99.90;;;;;;5050530;28;20040;-83
2021/04/04 02:51:45;;;;;;;9.80;1.67;;;5.90;99.90;;;;;;5068961;28;20044;-84
2021/04/04 02:54:16;;;;;;;16.73;2.90;;;5.90;99.90;;;;;;5059761;28;20036;-83
2021/04/04 02:56:47;;;;;;;21.02;3.75;;;5.90;99.90;;;;;;5070530;28;20038;-83
2021/04/04 02:59:49;;;;;;;11.18;1.77;;;5.90;99.90;;;;;;5070745;28;20115;-83
2021/04/04 03:02:18;;;;;;;10.88;1.92;;;5.90;99.90;;;;;;5070758;28;20043;-82
2021/04/04 03:04:47;;;;;;;7.93;2.08;;;5.90;99.90;;;;;;5070371;28;20037;-83
2021/04/04 03:07:19;;;;;;;15.38;1.83;;;5.90;99.90;;;;;;5070535;28;20063;-83
2021/04/04 03:09:48;;;;;;;9.30;1.70;;;6.00;99.90;;;;;;5070281;28;20040;-83
2021/04/04 03:12:15;;;;;;;8.40;1.63;;;5.90;99.90;;;;;;5070569;28;20048;-83
2021/04/04 03:14:43;;;;;;;9.95;2.20;;;5.80;99.90;;;;;;5052671;28;20511;-83
2021/04/04 03:17:10;;;;;;;19.98;3.30;;;5.90;99.90;;;;;;5069989;28;20118;-83
2021/04/04 03:19:40;;;;;;;10.82;2.20;;;5.70;99.90;;;;;;5052552;28;20147;-83
2021/04/04 03:22:06;;;;;;;7.87;2.23;;;5.80;99.90;;;;;;5061079;28;20037;-83
2021/04/04 03:24:33;;;;;;;16.83;2.70;;;5.80;99.90;;;;;;5052399;28;20299;-83
2021/04/04 03:27:01;;;;;;;9.63;2.55;;;5.80;99.90;;;;;;5069599;28;20064;-83
2021/04/04 03:29:29;;;;;;;15.23;2.65;;;5.70;99.90;;;;;;5050950;28;20076;-83
2021/04/04 03:31:57;;;;;;;17.05;2.95;;;5.70;99.90;;;;;;5051647;28;20033;-83
2021/04/04 03:34:25;;;;;;;14.18;2.90;;;5.70;99.90;;;;;;5069981;28;20071;-83
2021/04/04 03:36:53;;;;;;;10.57;2.92;;;5.70;99.90;;;;;;5050973;28;20141;-84
2021/04/04 03:39:21;;;;;;;16.40;3.38;;;5.70;99.90;;;;;;5070061;28;20127;-84
2021/04/04 03:41:50;;;;;;;12.93;3.05;;;5.80;99.90;;;;;;5069371;28;20127;-83
2021/04/04 03:44:19;;;;;;;17.45;3.70;;;5.80;99.90;;;;;;5035580;28;20411;-83
2021/04/04 03:46:46;;;;;;;13.52;4.07;;;5.70;99.90;;;;;;5051736;28;20048;-83
2021/04/04 03:49:13;;;;;;;13.30;3.40;;;5.80;99.90;;;;;;5069731;28;20123;-83
2021/04/04 03:51:40;;;;;;;15.30;4.50;;;5.80;99.90;;;;;;5069490;28;20032;-83
2021/04/04 03:54:10;;;;;;;15.02;5.03;;;5.80;99.90;;;;;;5068996;28;20111;-83
2021/04/04 03:56:36;;;;;;;23.27;5.20;;;5.80;99.90;;;;;;5035227;28;20448;-84
2021/04/04 03:59:06;;;;;;;14.60;3.67;;;5.90;99.90;;;;;;5034639;28;20050;-84
2021/04/04 04:01:35;;;;;;;17.13;3.83;;;5.90;99.90;;;;;;5068622;28;20503;-84
2021/04/04 04:04:03;;;;;;;10.20;3.75;;;5.90;99.90;;;;;;5050722;28;20068;-84
2021/04/04 04:06:37;;;;;;;16.48;4.82;;;6.00;99.90;;;;;;5051774;28;20056;-83
2021/04/04 04:09:29;;;;;;;14.60;3.85;;;5.90;99.90;;;;;;5050857;28;20036;-83
2021/04/04 04:11:56;;;;;;;9.77;3.60;;;5.90;99.90;;;;;;5048481;28;20048;-83
2021/04/04 04:14:22;;;;;;;14.32;4.47;;;6.00;99.90;;;;;;5069232;28;20040;-82
2021/04/04 04:16:49;;;;;;;11.98;4.60;;;5.90;99.90;;;;;;5051262;28;20098;-82
2021/04/04 04:19:16;;;;;;;24.15;4.35;;;5.90;99.90;;;;;;5068638;28;20059;-83
2021/04/04 04:21:43;;;;;;;14.40;4.97;;;5.90;99.90;;;;;;5069121;28;20400;-82
2021/04/04 04:24:14;;;;;;;17.27;4.70;;;5.90;99.90;;;;;;5049454;28;20032;-83
2021/04/04 04:26:43;;;;;;;23.95;5.78;;;5.90;99.90;;;;;;5069359;28;20057;-83
2021/04/04 04:29:12;;;;;;;16.63;4.77;;;5.90;99.90;;;;;;5050728;28;20040;-83
2021/04/04 04:31:46;;;;;;;12.90;4.57;;;5.90;99.90;;;;;;5069288;28;20047;-83
2021/04/04 04:34:12;;;;;;;15.30;4.65;;;5.90;99.90;;;;;;5068240;28;20047;-83
2021/04/04 04:36:40;;;;;;;16.85;5.18;;;5.90;99.90;;;;;;5068421;28;20064;-83
2021/04/04 04:39:08;;;;;;;19.02;4.70;;;6.00;99.90;;;;;;5050141;28;20115;-83
2021/04/04 04:41:38;;;;;;;11.10;3.95;;;5.90;99.90;;;;;;5050937;28;20377;-83
2021/04/04 04:44:06;;;;;;;14.38;4.25;;;5.90;99.90;;;;;;5050310;28;20044;-83
2021/04/04 04:46:33;;;;;;;21.77;5.38;;;5.90;99.90;;;;;;5069015;28;20496;-83
2021/04/04 04:49:01;;;;;;;13.48;3.60;;;5.90;99.90;;;;;;5068116;28;20519;-83
2021/04/04 04:51:26;;;;;;;19.08;5.15;;;5.90;99.90;;;;;;5068707;28;20093;-83
2021/04/04 04:53:53;;;;;;;14.40;4.25;;;5.80;99.90;;;;;;5068607;28;20045;-83
2021/04/04 04:56:20;;;;;;;11.07;4.05;;;5.90;99.90;;;;;;5069091;28;20123;-83
2021/04/04 04:58:47;;;;;;;20.20;6.03;;;6.00;99.90;;;;;;5018141;28;20052;-83
2021/04/04 05:01:18;;;;;;;14.45;5.15;;;5.90;99.90;;;;;;5050148;28;20048;-83
2021/04/04 05:03:47;;;;;;;16.77;4.70;;;5.90;99.90;;;;;;5049051;28;20041;-83
2021/04/04 05:06:13;;;;;;;15.43;5.05;;;5.90;99.90;;;;;;5050662;28;20599;-83
2021/04/04 05:08:43;;;;;;;17.95;5.20;;;5.80;99.90;;;;;;5034237;28;20044;-83
2021/04/04 05:11:12;;;;;;;17.27;5.90;;;5.80;99.90;;;;;;5068164;28;20039;-83
2021/04/04 05:13:39;;;;;;;17.37;6.43;;;5.80;99.90;;;;;;5050543;28;20148;-83
2021/04/04 05:16:10;;;;;;;11.07;4.43;;;5.80;99.90;;;;;;5067714;28;20041;-83
2021/04/04 05:18:49;;;;;;;15.40;4.03;;;5.80;99.90;;;;;;5050772;28;20040;-83
2021/04/04 05:21:28;;;;;;;18.95;5.57;;;5.80;99.90;;;;;;5050000;28;20037;-83
2021/04/04 05:23:59;;;;;;;16.10;5.78;;;5.80;99.90;;;;;;5033518;28;20049;-83
2021/04/04 05:26:29;;;;;;;25.10;7.15;;;5.80;99.90;;;;;;5014595;28;20403;-83
2021/04/04 05:28:55;;;;;;;14.63;5.63;;;5.80;99.90;;;;;;5059999;28;20472;-83
2021/04/04 05:31:22;;;;;;;16.65;6.15;;;5.80;99.90;;;;;;5015090;28;20037;-83
2021/04/04 05:33:48;;;;;;;21.88;5.93;;;5.90;99.90;;;;;;5033813;28;20036;-83
2021/04/04 05:36:14;;;;;;;19.05;5.30;;;5.90;99.90;;;;;;5049510;28;20045;-83
2021/04/04 05:38:40;;;;;;;15.43;5.05;;;5.80;99.90;;;;;;5068488;28;20044;-83
2021/04/04 05:41:06;;;;;;;10.40;5.13;;;5.90;99.90;;;;;;5067600;28;20059;-83
2021/04/04 05:43:40;;;;;;;14.63;5.80;;;5.80;99.90;;;;;;5050537;28;20041;-83
2021/04/04 05:46:11;;;;;;;17.00;5.15;;;5.80;99.90;;;;;;5067747;28;20109;-83
2021/04/04 05:49:12;;;;;;;13.75;4.90;;;5.80;99.90;;;;;;5050784;28;20489;-82
2021/04/04 05:51:59;;;;;;;11.02;4.35;;;5.90;99.90;;;;;;5048655;28;20588;-83
2021/04/04 05:54:35;;;;;;;13.93;4.18;;;5.90;99.90;;;;;;5054116;28;20400;-83
2021/04/04 05:57:09;;;;;;;14.88;3.65;;;6.00;99.90;;;;;;5053157;28;20039;-84
2021/04/04 05:59:47;;;;;;;15.35;5.45;;;5.90;99.90;;;;;;5053683;28;20040;-83
2021/04/04 06:02:32;;;;;;;16.30;4.88;;;5.90;99.90;;;;;;5063540;28;20051;-83
2021/04/04 06:05:34;;;;;;;12.32;5.32;;;5.90;99.90;;;;;;5053154;28;20894;-83
2021/04/04 06:08:03;;;;;;;17.25;5.85;;;5.90;99.90;;;;;;5071499;28;20073;-83
2021/04/04 06:10:39;;;;;;;16.50;4.78;;;5.90;99.90;;;;;;5053342;28;20045;-83
2021/04/04 06:13:54;;;;;;;20.83;6.60;;;6.00;99.90;;;;;;5057180;28;20055;-82
2021/04/04 06:16:40;;;;;;;22.13;6.15;;;5.90;99.90;;;;;;5055660;28;20055;-83
2021/04/04 06:19:36;;;;;;;11.57;3.88;;;6.00;99.90;;;;;;5070578;28;20040;-83
2021/04/04 06:22:25;;;;;;;26.20;6.28;;;5.90;99.90;;;;;;5042147;28;20606;-83
2021/04/04 06:25:01;;;;;;;16.60;6.35;;;6.00;99.90;;;;;;5039372;28;20401;-83
2021/04/04 06:27:39;;;;;;;13.65;4.80;;;6.00;99.90;;;;;;5071351;28;20044;-83
2021/04/04 06:30:21;;;;;;;21.70;5.95;;;6.00;99.90;;;;;;5052687;28;20456;-83
2021/04/04 06:33:02;;;;;;;19.90;5.03;;;6.00;99.90;;;;;;5070568;28;20044;-83
2021/04/04 06:35:39;;;;;;;20.58;5.88;;;6.00;99.90;;;;;;5053174;28;20060;-83
2021/04/04 06:38:38;;;;;;;20.55;5.57;;;6.00;99.90;;;;;;5052312;28;20053;-83
2021/04/04 06:41:28;;;;;;;17.73;6.05;;;6.00;99.90;;;;;;5051631;28;20190;-83
2021/04/04 06:44:15;;;;;;;;;;;6.00;99.90;;;;;;5048811;28;20069;-83
2021/04/04 06:46:59;;;;;;;14.63;5.57;;;6.00;99.90;;;;;;5071103;28;19956;-84
2021/04/04 06:50:02;;;;;;;16.35;5.78;;;6.00;99.90;;;;;;5070587;28;20040;-84
2021/04/04 06:52:51;;;;;;;21.20;6.13;;;6.00;99.90;;;;;;5039949;28;20040;-84
2021/04/04 06:55:41;;;;;;;24.38;6.10;;;6.10;99.90;;;;;;5068131;28;20071;-84
2021/04/04 06:58:21;;;;;;;17.77;5.22;;;6.10;99.90;;;;;;5043573;28;20053;-84
2021/04/04 07:01:19;;;;;;;26.48;5.80;;;6.10;99.90;;;;;;5052481;28;20403;-84
2021/04/04 07:03:48;;;;;;;14.77;5.38;;;6.20;99.90;;;;;;5041252;28;20103;-84
2021/04/04 07:06:23;;;;;;;19.80;4.85;;;6.20;99.90;;;;;;5051801;28;20056;-83
2021/04/04 07:08:58;;;;;;;17.42;5.32;;;6.20;99.90;;;;;;5052597;28;20044;-84
2021/04/04 07:11:36;;;;;;;25.02;6.40;;;6.20;99.90;;;;;;5069348;28;20043;-83
2021/04/04 07:14:35;;;;;;;21.27;6.35;;;6.20;99.90;;;;;;5070131;28;20053;-84
2021/04/04 07:17:27;;;;;;;14.13;4.43;;;6.30;99.90;;;;;;5070309;28;20068;-83
2021/04/04 07:20:19;;;;;;;16.38;5.72;;;6.20;99.90;;;;;;5033241;28;20063;-84
2021/04/04 07:23:04;;;;;;;20.10;5.68;;;6.30;99.90;;;;;;5050501;28;20042;-83
2021/04/04 07:25:35;;;;;;;11.32;3.72;;;6.30;99.90;;;;;;5070180;28;20114;-83
2021/04/04 07:28:10;;;;;;;15.10;3.67;;;6.30;99.90;;;;;;5051643;28;20159;-83
2021/04/04 07:30:58;;;;;;;28.35;7.00;;;6.40;99.90;;;;;;5049013;28;20064;-83
2021/04/04 07:33:50;;;;;;;18.05;6.30;;;6.40;99.90;;;;;;5056016;28;20036;-82
2021/04/04 07:36:33;;;;;;;24.58;6.10;;;6.40;99.90;;;;;;5064167;28;20032;-83
2021/04/04 07:39:12;;;;;;;9.77;3.90;;;6.40;99.90;;;;;;5052195;28;20036;-82
2021/04/04 07:41:55;;;;;;;14.70;5.05;;;6.40;99.90;;;;;;5069557;28;20553;-84
2021/04/04 07:44:27;;;;;;;23.58;5.65;;;6.50;99.90;;;;;;5069135;28;20045;-83
2021/04/04 07:47:28;;;;;;;14.57;5.20;;;6.40;99.90;;;;;;5045118;28;20072;-83
2021/04/04 07:50:02;;;;;;;22.73;6.18;;;6.40;99.90;;;;;;5051929;28;20040;-84
2021/04/04 07:52:33;;;;;;;20.33;5.25;;;6.40;99.90;;;;;;5051474;28;20048;-84
2021/04/04 07:55:19;;;;;;;24.60;5.85;;;6.50;99.90;;;;;;5051911;28;20066;-84
2021/04/04 07:58:20;;;;;;;17.33;5.50;;;6.50;99.90;;;;;;5051771;28;20090;-84
2021/04/04 08:00:56;;;;;;;24.35;5.40;;;6.60;99.90;;;;;;5051502;28;20044;-83
2021/04/04 08:03:31;;;;;;;15.45;3.17;;;6.60;99.90;;;;;;5046277;28;20037;-84
2021/04/04 08:06:06;;;;;;;19.38;4.18;;;6.60;99.90;;;;;;5051721;28;20055;-84
2021/04/04 08:08:48;;;;;;;14.10;4.57;;;6.70;99.90;;;;;;5044375;28;20078;-84
2021/04/04 08:11:31;;;;;;;25.08;5.45;;;6.70;99.90;;;;;;5052111;28;20086;-83
2021/04/04 08:14:06;;;;;;;21.83;4.90;;;6.70;99.90;;;;;;5047801;28;20374;-84
2021/04/04 08:16:53;;;;;;;21.02;4.55;;;6.80;99.90;;;;;;5046351;28;20040;-84
2021/04/04 08:19:19;;;;;;;17.50;5.10;;;6.90;99.90;;;;;;5062863;28;20045;-84
2021/04/04 08:22:06;;;;;;;20.70;3.88;;;6.90;99.90;;;;;;5068627;28;20090;-85
2021/04/04 08:24:53;;;;;;;12.10;3.75;;;7.00;99.90;;;;;;5068600;28;20037;-84
2021/04/04 08:28:01;;;;;;;15.15;3.35;;;7.00;99.90;;;;;;5049859;28;20582;-84
2021/04/04 08:30:52;;;;;;;10.75;2.40;;;7.10;99.90;;;;;;4942054;28;20046;-85
2021/04/04 08:33:28;;;;;;;16.63;3.70;;;7.00;99.90;;;;;;4946092;28;20065;-84
2021/04/04 08:35:58;;;;;;;16.52;4.10;;;6.90;99.90;;;;;;5035158;28;20168;-84
2021/04/04 08:38:35;;;;;;;10.02;2.03;;;6.80;99.90;;;;;;5043247;28;20049;-84
2021/04/04 08:41:02;;;;;;;18.77;3.72;;;6.90;99.90;;;;;;5062345;28;20072;-83
2021/04/04 08:43:28;;;;;;;9.35;1.77;;;6.80;99.90;;;;;;5037049;28;20059;-84
2021/04/04 08:46:21;;;;;;;14.60;3.10;;;6.90;99.90;;;;;;5049496;28;20044;-84
2021/04/04 08:48:48;;;;;;;21.38;3.53;;;6.90;99.90;;;;;;5038953;28;20037;-84
2021/04/04 08:51:18;;;;;;;19.63;3.45;;;7.00;99.90;;;;;;5068199;28;20047;-84
2021/04/04 08:53:48;;;;;;;16.60;3.40;;;7.10;99.90;;;;;;5068952;28;20075;-84
2021/04/04 08:56:16;;;;;;;15.63;2.97;;;7.10;99.90;;;;;;5050170;28;20059;-84
2021/04/04 08:58:47;;;;;;;25.27;3.80;;;7.30;99.90;;;;;;5068744;28;20044;-84
2021/04/04 09:01:24;;;;;;;28.60;3.72;;;7.30;99.90;;;;;;5050186;28;20052;-84
2021/04/04 09:03:56;;;;;;;24.15;3.72;;;7.30;99.90;;;;;;5043127;28;20045;-84
2021/04/04 09:06:22;;;;;;;11.63;2.55;;;7.40;99.90;;;;;;5067767;28;20523;-84
2021/04/04 09:08:50;;;;;;;12.98;3.25;;;7.50;99.90;;;;;;5034310;28;20070;-84
2021/04/04 09:11:17;;;;;;;7.78;1.92;;;7.50;99.90;;;;;;5050227;28;20044;-84
2021/04/04 09:13:43;;;;;;;13.23;2.25;;;7.40;99.90;;;;;;5051075;28;20044;-84
2021/04/04 09:16:14;;;;;;;23.63;3.63;;;7.30;99.90;;;;;;5067759;28;20070;-84
2021/04/04 09:18:49;;;;;;;11.30;1.95;;;7.30;99.90;;;;;;5060398;28;20048;-84
2021/04/04 09:21:16;;;;;;;16.60;3.47;;;7.30;99.90;;;;;;5067607;28;20052;-84
2021/04/04 09:23:46;;;;;;;13.48;3.55;;;7.30;99.90;;;;;;5068122;28;20057;-84
2021/04/04 09:26:18;;;;;;;9.23;1.63;;;7.20;99.90;;;;;;5050921;28;20051;-84
2021/04/04 09:28:46;;;;;;;20.83;3.28;;;7.20;99.90;;;;;;5063786;28;20040;-84
2021/04/04 09:31:24;;;;;;;18.27;3.00;;;7.20;99.90;;;;;;5054702;28;20045;-84
2021/04/04 09:33:57;;;;;;;17.15;3.13;;;7.10;99.90;;;;;;5054778;28;20053;-84
2021/04/04 09:36:24;;;;;;;17.13;3.22;;;7.20;99.90;;;;;;5053765;28;20485;-84
2021/04/04 09:38:53;;;;;;;10.23;2.05;;;7.20;99.90;;;;;;5046513;28;20136;-84
2021/04/04 09:41:19;;;;;;;17.40;2.78;;;7.40;99.90;;;;;;5053551;28;20040;-84
2021/04/04 09:44:01;;;;;;;25.25;3.95;;;7.50;99.90;;;;;;5072128;28;20040;-84
2021/04/04 09:46:28;;;;;;;11.52;1.90;;;7.50;99.90;;;;;;5071218;28;20040;-84
2021/04/04 09:48:53;;;;;;;17.55;2.88;;;7.60;99.90;;;;;;5031483;28;20110;-84
2021/04/04 09:51:19;;;;;;;15.48;2.38;;;7.70;99.90;;;;;;5036361;28;20044;-84
2021/04/04 09:53:48;;;;;;;11.52;2.05;;;7.80;99.90;;;;;;5072237;28;20044;-84
2021/04/04 09:56:28;;;;;;;20.40;2.88;;;7.70;99.90;;;;;;5071805;28;20049;-84
2021/04/04 09:58:54;;;;;;;;;;;7.80;99.90;;;;;;5054343;28;20048;-84
2021/04/04 10:01:27;;;;;;;7.35;1.00;;;7.90;99.90;;;;;;5053414;28;19974;-84
2021/04/04 10:04:04;;;;;;;18.92;2.20;;;7.90;99.90;;;;;;5048287;28;20041;-85
2021/04/04 10:06:31;;;;;;;12.18;2.53;;;7.70;99.90;;;;;;5053136;28;20040;-85
2021/04/04 10:09:00;;;;;;;8.35;2.28;;;7.80;99.90;;;;;;5053606;28;20040;-84
2021/04/04 10:11:27;;;;;;;15.07;2.60;;;7.70;99.90;;;;;;5071067;28;20048;-84
2021/04/04 10:14:15;;;;;;;10.50;2.13;;;7.80;99.90;;;;;;5071187;28;20044;-85
2021/04/04 10:16:41;;;;;;;4.40;1.02;;;7.80;99.90;;;;;;5071364;28;20036;-84
2021/04/04 10:19:15;;;;;;;9.38;1.52;;;7.80;99.90;;;;;;5019970;28;20032;-84
2021/04/04 10:21:54;;;;;;;13.80;2.67;;;7.80;99.90;;;;;;5051836;28;20040;-84
2021/04/04 10:24:32;;;;;;;9.02;2.42;;;8.10;99.90;;;;;;5068900;28;20075;-85
2021/04/04 10:27:24;;;;;;;9.27;1.83;;;7.70;99.90;;;;;;5044055;28;20045;-84
2021/04/04 10:30:13;;;;;;;6.45;1.42;;;7.90;99.90;;;;;;5069514;28;20055;-84
2021/04/04 10:32:43;;;;;;;6.85;1.65;;;8.00;99.90;;;;;;5070296;28;20041;-84
2021/04/04 10:35:10;;;;;;;13.05;1.38;;;7.90;99.90;;;;;;5024379;28;20514;-85
2021/04/04 10:37:38;;;;;;;12.35;2.13;;;7.90;99.90;;;;;;5038743;28;20049;-84
2021/04/04 10:40:12;;;;;;;11.20;2.08;;;7.80;99.90;;;;;;5069936;28;20068;-84
2021/04/04 10:42:38;;;;;;;5.40;1.45;;;7.70;99.90;;;;;;5052510;28;20045;-84
2021/04/04 10:45:15;;;;;;;14.65;2.40;;;7.80;99.90;;;;;;5032673;28;20091;-85
2021/04/04 10:47:44;;;;;;;8.63;1.60;;;7.90;99.90;;;;;;5045115;28;20098;-85
2021/04/04 10:50:16;;;;;;;13.70;2.35;;;7.70;99.90;;;;;;5043681;28;20037;-85
2021/04/04 10:52:44;;;;;;;21.83;2.70;;;7.70;99.90;;;;;;5041254;28;20044;-85
2021/04/04 10:55:11;;;;;;;16.77;2.35;;;7.70;99.90;;;;;;5050876;28;20473;-85
2021/04/04 10:57:38;;;;;;;36.90;3.55;;;7.70;99.90;;;;;;5052205;28;20488;-86
2021/04/04 11:00:06;;;;;;;15.43;2.53;;;7.70;99.90;;;;;;5070694;28;20052;-86
2021/04/04 11:02:34;;;;;;;7.13;1.63;;;7.60;99.90;;;;;;5069703;28;20041;-86
2021/04/04 11:05:01;;;;;;;31.92;4.55;;;7.70;99.90;;;;;;5039173;28;20370;-87
2021/04/04 11:07:27;;;;;;;16.45;2.58;;;7.90;99.90;;;;;;5069077;28;20067;-85
2021/04/04 11:09:54;;;;;;;22.58;2.95;;;7.80;99.90;;;;;;5037136;28;20797;-85
2021/04/04 11:12:21;;;;;;;16.52;2.45;;;8.00;99.90;;;;;;5070010;28;20044;-85
2021/04/04 11:14:48;;;;;;;11.35;2.45;;;8.10;99.90;;;;;;5052249;28;20040;-84
2021/04/04 11:17:19;;;;;;;15.98;3.50;;;8.20;99.90;;;;;;5016393;28;20063;-84
2021/04/04 11:19:50;;;;;;;13.68;2.10;;;8.20;99.90;;;;;;5056909;28;20051;-84
2021/04/04 11:22:18;;;;;;;11.82;2.13;;;8.40;99.90;;;;;;5042415;28;20037;-86
2021/04/04 11:25:07;;;;;;;8.40;2.00;;;8.20;99.90;;;;;;5051183;28;20732;-86
2021/04/04 11:27:47;;;;;;;12.63;1.90;;;8.30;99.90;;;;;;5067667;28;20040;-87
2021/04/04 11:30:33;;;;;;;11.52;2.17;;;8.30;99.90;;;;;;5048496;28;20043;-86
2021/04/04 11:33:17;;;;;;;10.48;1.80;;;8.30;99.90;;;;;;5051322;28;20507;-86
2021/04/04 11:36:12;;;;;;;8.70;1.40;;;8.30;99.90;;;;;;5068937;28;20219;-86
2021/04/04 11:38:47;;;;;;;6.53;1.80;;;8.20;99.90;;;;;;5068929;28;20079;-86
2021/04/04 11:41:16;;;;;;;13.60;3.55;;;8.30;99.90;;;;;;5049058;28;20068;-86
2021/04/04 11:43:44;;;;;;;13.10;2.50;;;8.40;99.90;;;;;;5051290;28;20041;-86
2021/04/04 11:46:48;;;;;;;20.00;2.97;;;8.40;99.90;;;;;;5051900;28;20044;-86
2021/04/04 11:49:38;;;;;;;17.25;3.22;;;8.50;99.90;;;;;;5055718;28;20045;-85
2021/04/04 11:52:10;;;;;;;17.08;3.20;;;8.50;99.90;;;;;;5056030;28;20558;-86
2021/04/04 11:54:45;;;;;;;23.55;2.85;;;8.60;99.90;;;;;;5051064;28;20449;-86
2021/04/04 11:57:24;;;;;;;19.67;4.50;;;8.60;99.90;;;;;;5020322;28;20110;-85
2021/04/04 11:59:58;;;;;;;8.50;2.30;;;8.50;99.90;;;;;;5027972;28;20064;-85
2021/04/04 12:02:32;;;;;;;30.40;3.58;;;8.40;99.90;;;;;;5050198;28;20047;-85
2021/04/04 12:05:11;;;;;;;13.85;2.63;;;8.50;99.90;;;;;;5050749;28;20044;-86
2021/04/04 12:07:56;;;;;;;21.60;3.60;;;8.40;99.90;;;;;;5050947;28;20040;-85
2021/04/04 12:10:33;;;;;;;15.27;3.88;;;8.40;99.90;;;;;;5069094;28;20528;-85
2021/04/04 12:12:59;;;;;;;16.13;2.90;;;8.30;99.90;;;;;;5069630;28;20040;-85
2021/04/04 12:15:27;;;;;;;16.40;2.97;;;8.30;99.90;;;;;;5069475;28;20051;-85
2021/04/04 12:18:03;;;;;;;21.05;3.47;;;8.40;99.90;;;;;;5068841;28;20028;-85
2021/04/04 12:20:34;;;;;;;21.77;3.17;;;8.40;99.90;;;;;;5031076;28;20076;-85
2021/04/04 12:23:01;;;;;;;22.45;2.90;;;8.30;99.90;;;;;;5049994;28;20056;-85
2021/04/04 12:25:28;;;;;;;20.33;3.33;;;8.30;99.90;;;;;;5034553;28;20047;-85
2021/04/04 12:27:56;;;;;;;27.70;4.10;;;8.40;99.90;;;;;;5034524;28;20042;-85
2021/04/04 12:30:32;;;;;;;11.68;2.80;;;8.40;99.90;;;;;;5047577;28;20583;-85
2021/04/04 12:33:17;;;;;;;23.75;3.90;;;8.40;99.90;;;;;;5049588;28;20076;-85
2021/04/04 12:35:55;;;;;;;13.20;3.40;;;8.40;99.90;;;;;;5050641;28;20132;-85
2021/04/04 12:38:29;;;;;;;21.00;3.55;;;8.10;99.90;;;;;;5067947;28;20059;-85
2021/04/04 12:41:03;;;;;;;19.48;3.25;;;8.10;99.90;;;;;;5049779;28;20040;-85
2021/04/04 12:43:29;;;;;;;24.65;3.88;;;8.00;99.90;;;;;;5050491;28;20045;-86
2021/04/04 12:45:55;;;;;;;16.35;3.95;;;8.00;99.90;;;;;;5033503;28;20048;-85
2021/04/04 12:48:25;;;;;;;19.92;3.08;;;8.00;99.90;;;;;;5033987;28;20507;-85
2021/04/04 12:50:57;;;;;;;21.58;4.72;;;8.00;99.90;;;;;;5035616;28;20041;-85
2021/04/04 12:53:28;;;;;;;23.15;3.88;;;8.00;99.90;;;;;;5065327;28;20052;-85
2021/04/04 12:55:55;;;;;;;21.02;3.80;;;7.90;99.90;;;;;;5049894;28;20089;-85
2021/04/04 12:58:29;;;;;;;22.75;3.15;;;8.00;99.90;;;;;;5017461;28;20055;-85
2021/04/04 13:00:55;;;;;;;27.02;4.05;;;7.90;99.90;;;;;;5051054;28;20032;-85
2021/04/04 13:03:22;;;;;;;23.23;4.18;;;7.80;99.90;;;;;;5035931;28;20036;-85
2021/04/04 13:05:50;;;;;;;21.23;4.75;;;7.80;99.90;;;;;;5037354;28;20127;-85
2021/04/04 13:08:21;;;;;;;23.25;4.32;;;7.90;99.90;;;;;;5071923;28;20033;-85
2021/04/04 13:11:11;;;;;;;29.05;4.35;;;7.90;99.90;;;;;;5050277;28;20131;-85
2021/04/04 13:13:43;;;;;;;31.17;4.95;;;7.90;99.90;;;;;;5054276;28;20068;-85
2021/04/04 13:16:14;;;;;;;26.48;4.32;;;7.90;99.90;;;;;;5054445;28;20044;-85
2021/04/04 13:18:44;;;;;;;20.55;4.60;;;8.00;99.90;;;;;;5071939;28;20068;-85
2021/04/04 13:21:18;;;;;;;21.35;5.45;;;8.00;99.90;;;;;;5054602;28;20059;-85